createdAt,value
2019-04-19T00:00:03.439Z,12.6
2019-04-19T00:05:03.537Z,12.6
2019-04-19T00:10:06.955Z,12.5
2019-04-19T00:15:03.510Z,12.1
2019-04-19T00:20:25.546Z,12.1
2019-04-19T00:25:02.823Z,12.1
2019-04-19T00:30:13.910Z,12.3
2019-04-19T00:35:03.410Z,12.1
2019-04-19T00:40:21.545Z,12.3
2019-04-19T00:45:19.040Z,12.1
2019-04-19T00:50:15.726Z,12.1
2019-04-19T00:55:10.324Z,12.1
2019-04-19T01:00:03.958Z,12.0
2019-04-19T01:05:06.913Z,12.1
2019-04-19T01:10:21.458Z,12.0
2019-04-19T01:15:09.370Z,11.6
2019-04-19T01:20:06.881Z,11.6
2019-04-19T01:25:08.833Z,11.6
2019-04-19T01:30:04.467Z,11.8
2019-04-19T01:35:09.264Z,11.8
2019-04-19T01:40:18.529Z,11.8
2019-04-19T01:45:13.441Z,11.6
2019-04-19T01:50:12.335Z,11.3
2019-04-19T01:55:12.325Z,11.6
2019-04-19T02:00:05.085Z,11.3
2019-04-19T02:05:09.198Z,11.3
2019-04-19T02:10:13.344Z,11.3
2019-04-19T02:15:09.613Z,11.3
2019-04-19T02:20:05.874Z,11.3
2019-04-19T02:25:04.023Z,11.0
2019-04-19T02:30:11.248Z,11.0
2019-04-19T02:35:22.057Z,11.0
2019-04-19T02:40:45.021Z,11.0
2019-04-19T02:50:57.953Z,10.8
2019-04-19T02:55:13.768Z,10.8
2019-04-19T03:00:37.694Z,10.8
2019-04-19T03:05:29.933Z,10.6
2019-04-19T03:10:04.993Z,10.8
2019-04-19T03:15:14.077Z,10.6
2019-04-19T03:20:16.605Z,10.6
2019-04-19T03:25:18.406Z,10.6
2019-04-19T03:30:16.730Z,10.6
2019-04-19T03:35:15.330Z,10.6
2019-04-19T03:40:26.052Z,10.6
2019-04-19T03:45:17.529Z,10.6
2019-04-19T03:50:20.370Z,10.5
2019-04-19T03:55:20.286Z,10.5
2019-04-19T04:00:03.003Z,10.5
2019-04-19T04:05:07.560Z,10.3
2019-04-19T04:10:04.150Z,10.3
2019-04-19T04:15:16.720Z,10.1
2019-04-19T04:20:03.204Z,10.1
2019-04-19T04:25:11.732Z,10.1
2019-04-19T04:30:15.335Z,10.1
2019-04-19T04:35:21.518Z,10.1
2019-04-19T04:40:02.730Z,10.1
2019-04-19T04:50:27.786Z,10.1
2019-04-19T04:55:03.293Z,10.1
2019-04-19T05:00:03.420Z,10.5
2019-04-19T05:05:19.826Z,10.5
2019-04-19T05:10:23.144Z,10.5
2019-04-19T05:15:22.545Z,10.6
2019-04-19T05:30:02.949Z,10.8
2019-04-19T05:35:16.726Z,11.0
2019-04-19T05:40:21.606Z,11.1
2019-04-19T05:45:31.532Z,11.3
2019-04-19T05:50:25.568Z,11.3
2019-04-19T05:55:02.499Z,11.6
2019-04-19T06:00:18.244Z,12.0
2019-04-19T06:05:15.484Z,12.1
2019-04-19T06:10:06.544Z,12.1
2019-04-19T06:15:24.844Z,12.3
2019-04-19T06:20:20.647Z,12.6
2019-04-19T06:25:24.713Z,12.8
2019-04-19T06:30:16.114Z,13.1
2019-04-19T06:35:16.665Z,13.3
2019-04-19T06:40:10.491Z,13.5
2019-04-19T06:45:17.695Z,13.6
2019-04-19T06:50:03.066Z,13.8
2019-04-19T06:55:09.817Z,14.0
2019-04-19T07:00:13.172Z,14.3
2019-04-19T07:05:18.735Z,14.6
2019-04-19T07:10:33.801Z,14.8
2019-04-19T07:15:30.172Z,15.1
2019-04-19T07:20:17.601Z,15.3
2019-04-19T07:25:18.400Z,15.8
2019-04-19T07:30:05.111Z,16.2
2019-04-19T07:35:16.320Z,16.2
2019-04-19T07:40:23.629Z,16.7
2019-04-19T07:45:08.349Z,16.7
2019-04-19T07:50:12.207Z,17.3
2019-04-19T07:55:07.614Z,17.7
2019-04-19T08:05:36.562Z,18.5
2019-04-19T08:10:28.195Z,18.5
2019-04-19T08:30:10.225Z,20.2
2019-04-19T08:35:07.461Z,19.7
2019-04-19T08:40:22.124Z,20.2
2019-04-19T08:45:09.257Z,20.2
2019-04-19T08:50:07.129Z,20.7
2019-04-19T09:05:18.717Z,21.2
2019-04-19T09:10:27.098Z,21.7
2019-04-19T09:15:21.563Z,22.1
2019-04-19T09:20:20.367Z,22.7
2019-04-19T09:25:07.516Z,22.5
2019-04-19T09:30:22.292Z,22.7
2019-04-19T09:35:06.505Z,23.0
2019-04-19T09:40:08.302Z,22.7
2019-04-19T09:45:04.373Z,23.2
2019-04-19T09:50:13.286Z,22.7
2019-04-19T09:55:30.194Z,23.1
2019-04-19T10:00:11.109Z,23.3
2019-04-19T10:05:03.119Z,24.7
2019-04-19T10:10:07.087Z,24.0
2019-04-19T10:15:04.124Z,23.8
2019-04-19T10:20:02.853Z,24.6
2019-04-19T10:25:03.365Z,24.2
2019-04-19T10:30:04.042Z,26.5
2019-04-19T10:35:02.558Z,25.0
2019-04-19T10:40:03.920Z,25.7
2019-04-19T10:45:02.641Z,25.0
2019-04-19T10:50:16.899Z,24.7
2019-04-19T10:55:04.242Z,25.2
2019-04-19T11:00:03.316Z,25.3
2019-04-19T11:05:03.028Z,25.8
2019-04-19T11:10:02.444Z,25.5
2019-04-19T11:15:02.817Z,26.2
2019-04-19T11:20:16.678Z,25.7
2019-04-19T11:25:03.878Z,26.2
2019-04-19T11:30:03.407Z,25.5
2019-04-19T11:35:03.280Z,25.7
2019-04-19T11:40:03.480Z,26.0
2019-04-19T11:45:03.775Z,25.3
2019-04-19T11:50:03.867Z,26.2
2019-04-19T11:55:04.595Z,27.2
2019-04-19T12:00:04.092Z,25.1
2019-04-19T12:05:13.991Z,25.5
2019-04-19T12:10:03.123Z,26.6
2019-04-19T12:15:03.961Z,26.0
2019-04-19T12:20:04.445Z,26.8
2019-04-19T12:25:03.752Z,27.2
2019-04-19T12:30:03.201Z,26.8
2019-04-19T12:35:02.888Z,27.7
2019-04-19T12:40:03.458Z,28.1
2019-04-19T12:45:04.038Z,26.6
2019-04-19T12:50:06.986Z,26.8
2019-04-19T12:55:03.837Z,26.5
2019-04-19T13:00:03.300Z,28.6
2019-04-19T13:05:02.828Z,27.7
2019-04-19T13:10:03.255Z,26.5
2019-04-19T13:15:03.944Z,29.2
2019-04-19T13:20:10.111Z,28.2
2019-04-19T13:25:03.601Z,27.5
2019-04-19T13:30:12.257Z,27.7
2019-04-19T13:35:03.511Z,27.2
2019-04-19T13:40:04.058Z,27.3
2019-04-19T13:45:14.097Z,26.6
2019-04-19T13:50:14.567Z,27.1
2019-04-19T13:55:03.344Z,27.7
2019-04-19T14:00:06.428Z,29.2
2019-04-19T14:05:02.518Z,28.1
2019-04-19T14:10:03.278Z,29.6
2019-04-19T14:15:02.887Z,29.1
2019-04-19T14:20:03.358Z,29.2
2019-04-19T14:25:03.409Z,30.3
2019-04-19T14:30:03.689Z,28.2
2019-04-19T14:35:03.661Z,27.5
2019-04-19T14:40:03.173Z,28.2
2019-04-19T14:45:03.751Z,27.3
2019-04-19T14:50:03.181Z,27.7
2019-04-19T14:55:03.515Z,28.0
2019-04-19T15:00:03.137Z,27.7
2019-04-19T15:05:01.853Z,27.7
2019-04-19T15:10:03.792Z,27.8
2019-04-19T15:15:04.037Z,27.7
2019-04-19T15:20:03.658Z,27.2
2019-04-19T15:25:04.474Z,27.7
2019-04-19T15:30:03.175Z,27.7
2019-04-19T15:35:03.645Z,27.7
2019-04-19T15:40:04.283Z,27.5
2019-04-19T15:45:03.122Z,27.7
2019-04-19T15:50:02.578Z,27.7
2019-04-19T15:55:03.899Z,28.5
2019-04-19T16:00:04.380Z,26.5
2019-04-19T16:05:04.044Z,28.6
2019-04-19T16:10:08.536Z,27.2
2019-04-19T16:15:04.081Z,27.1
2019-04-19T16:20:03.296Z,26.5
2019-04-19T16:25:03.146Z,26.6
2019-04-19T16:30:03.677Z,27.2
2019-04-19T16:35:03.615Z,26.6
2019-04-19T16:40:04.269Z,27.3
2019-04-19T16:45:03.872Z,26.0
2019-04-19T16:50:03.269Z,26.7
2019-04-19T16:55:03.099Z,26.7
2019-04-19T17:00:02.521Z,26.5
2019-04-19T17:05:03.111Z,26.5
2019-04-19T17:10:03.691Z,25.6
2019-04-19T17:15:03.355Z,25.7
2019-04-19T17:20:02.893Z,25.1
2019-04-19T17:25:03.351Z,25.0
2019-04-19T17:30:04.128Z,24.7
2019-04-19T17:35:02.806Z,24.7
2019-04-19T17:40:04.664Z,24.5
2019-04-19T17:45:03.136Z,24.0
2019-04-19T17:50:02.769Z,23.2
2019-04-19T17:55:13.206Z,23.2
2019-04-19T18:00:03.984Z,23.1
2019-04-19T18:05:02.405Z,21.3
2019-04-19T18:10:09.656Z,21.2
2019-04-19T18:15:03.632Z,20.8
2019-04-19T18:20:09.597Z,20.7
2019-04-19T18:25:04.227Z,20.3
2019-04-19T18:30:05.853Z,20.2
2019-04-19T18:35:07.793Z,20.1
2019-04-19T18:40:05.781Z,19.7
2019-04-19T18:45:03.236Z,19.5
2019-04-19T18:50:03.619Z,19.2
2019-04-19T18:55:08.126Z,19.0
2019-04-19T19:00:06.145Z,18.8
2019-04-19T19:05:05.752Z,18.7
2019-04-19T19:10:06.302Z,18.5
2019-04-19T19:15:04.648Z,18.2
2019-04-19T19:20:09.406Z,18.1
2019-04-19T19:25:18.419Z,18.1
2019-04-19T19:30:05.322Z,17.8
2019-04-19T19:35:06.713Z,17.7
2019-04-19T19:40:13.133Z,17.7
2019-04-19T19:45:21.752Z,17.7
2019-04-19T19:50:29.987Z,17.5
2019-04-19T19:55:17.599Z,17.5
2019-04-19T20:00:13.483Z,17.5
2019-04-19T20:05:03.401Z,17.3
2019-04-19T20:10:07.459Z,17.1
2019-04-19T20:15:04.912Z,17.2
2019-04-19T20:20:04.475Z,17.0
2019-04-19T20:25:19.137Z,16.7
2019-04-19T20:30:06.629Z,16.7
2019-04-19T20:35:11.268Z,16.7
2019-04-19T20:40:08.636Z,16.6
2019-04-19T20:45:11.031Z,16.6
2019-04-19T20:50:15.075Z,16.3
2019-04-19T20:55:24.125Z,16.2
2019-04-19T21:00:04.805Z,16.2
2019-04-19T21:05:04.834Z,16.0
2019-04-19T21:10:06.285Z,15.8
2019-04-19T21:15:13.690Z,15.8
2019-04-19T21:20:04.511Z,15.8
2019-04-19T21:25:15.291Z,15.8
2019-04-19T21:30:07.498Z,15.6
2019-04-19T21:35:07.411Z,15.5
2019-04-19T21:40:03.826Z,15.5
2019-04-19T21:45:04.739Z,15.5
2019-04-19T21:50:03.074Z,15.3
2019-04-19T21:55:16.150Z,15.1
2019-04-19T22:00:04.199Z,15.1
2019-04-19T22:05:06.236Z,15.0
2019-04-19T22:10:04.088Z,15.0
2019-04-19T22:15:07.124Z,15.0
2019-04-19T22:20:08.249Z,14.8
2019-04-19T22:25:09.834Z,14.6
2019-04-19T22:30:03.292Z,14.6
2019-04-19T22:35:09.463Z,14.5
2019-04-19T22:40:04.754Z,14.3
2019-04-19T22:45:05.912Z,14.5
2019-04-19T22:50:03.188Z,14.3
2019-04-19T22:55:08.971Z,14.3
2019-04-19T23:00:03.522Z,14.1
2019-04-19T23:05:03.146Z,14.0
2019-04-19T23:10:02.924Z,14.1
2019-04-19T23:15:03.654Z,14.1
2019-04-19T23:20:03.391Z,14.0
2019-04-19T23:25:06.533Z,13.8
2019-04-19T23:30:10.151Z,13.6
2019-04-19T23:35:04.228Z,13.6
2019-04-19T23:40:03.262Z,13.5
2019-04-19T23:45:03.792Z,13.5
2019-04-19T23:50:04.069Z,13.3
2019-04-19T23:55:02.578Z,13.1
